sensor_id;sensor_type;location;lat;lon;timestamp;P1;durP1;ratioP1;P2;durP2;ratioP2
55212;SDS011;41083;52.932;6.674;2022-12-28T00:00:52;3.65;;;2.13;;
55212;SDS011;41083;52.932;6.674;2022-12-28T00:03:18;4.00;;;1.17;;
55212;SDS011;41083;52.932;6.674;2022-12-28T00:05:44;4.60;;;1.20;;
55212;SDS011;41083;52.932;6.674;2022-12-28T00:08:09;1.42;;;0.80;;
55212;SDS011;41083;52.932;6.674;2022-12-28T00:10:35;2.03;;;0.98;;
55212;SDS011;41083;52.932;6.674;2022-12-28T00:13:00;2.80;;;1.38;;
55212;SDS011;41083;52.932;6.674;2022-12-28T00:15:26;4.00;;;1.77;;
55212;SDS011;41083;52.932;6.674;2022-12-28T00:17:52;3.13;;;1.60;;
55212;SDS011;41083;52.932;6.674;2022-12-28T00:20:17;1.20;;;0.77;;
55212;SDS011;41083;52.932;6.674;2022-12-28T00:22:43;2.88;;;1.05;;
55212;SDS011;41083;52.932;6.674;2022-12-28T00:25:08;2.67;;;1.00;;
55212;SDS011;41083;52.932;6.674;2022-12-28T00:27:34;1.70;;;0.93;;
55212;SDS011;41083;52.932;6.674;2022-12-28T00:29:59;2.10;;;1.00;;
55212;SDS011;41083;52.932;6.674;2022-12-28T00:32:25;1.98;;;1.10;;
55212;SDS011;41083;52.932;6.674;2022-12-28T00:34:51;1.45;;;0.90;;
55212;SDS011;41083;52.932;6.674;2022-12-28T00:37:16;2.28;;;1.45;;
55212;SDS011;41083;52.932;6.674;2022-12-28T00:39:42;5.03;;;1.30;;
55212;SDS011;41083;52.932;6.674;2022-12-28T00:42:08;2.45;;;1.52;;
55212;SDS011;41083;52.932;6.674;2022-12-28T00:44:34;2.90;;;1.40;;
55212;SDS011;41083;52.932;6.674;2022-12-28T00:46:59;7.43;;;1.30;;
55212;SDS011;41083;52.932;6.674;2022-12-28T00:49:25;3.53;;;1.42;;
55212;SDS011;41083;52.932;6.674;2022-12-28T00:51:50;1.55;;;1.35;;
55212;SDS011;41083;52.932;6.674;2022-12-28T00:54:16;2.25;;;1.15;;
55212;SDS011;41083;52.932;6.674;2022-12-28T00:56:41;4.43;;;1.45;;
55212;SDS011;41083;52.932;6.674;2022-12-28T00:59:07;5.53;;;1.10;;
55212;SDS011;41083;52.932;6.674;2022-12-28T01:01:33;3.08;;;0.90;;
55212;SDS011;41083;52.932;6.674;2022-12-28T01:03:59;2.05;;;1.40;;
55212;SDS011;41083;52.932;6.674;2022-12-28T01:06:25;2.70;;;1.35;;
55212;SDS011;41083;52.932;6.674;2022-12-28T01:08:51;1.77;;;0.95;;
55212;SDS011;41083;52.932;6.674;2022-12-28T01:11:22;1.83;;;1.08;;
55212;SDS011;41083;52.932;6.674;2022-12-28T01:13:49;4.75;;;1.13;;
55212;SDS011;41083;52.932;6.674;2022-12-28T01:16:17;3.30;;;1.60;;
55212;SDS011;41083;52.932;6.674;2022-12-28T01:18:50;4.28;;;1.52;;
55212;SDS011;41083;52.932;6.674;2022-12-28T01:21:18;2.33;;;1.70;;
55212;SDS011;41083;52.932;6.674;2022-12-28T01:23:45;1.92;;;1.05;;
55212;SDS011;41083;52.932;6.674;2022-12-28T01:26:12;3.33;;;1.25;;
55212;SDS011;41083;52.932;6.674;2022-12-28T01:28:38;1.60;;;1.05;;
55212;SDS011;41083;52.932;6.674;2022-12-28T01:31:06;3.70;;;1.42;;
55212;SDS011;41083;52.932;6.674;2022-12-28T01:33:36;6.07;;;1.75;;
55212;SDS011;41083;52.932;6.674;2022-12-28T01:36:21;5.80;;;1.20;;
55212;SDS011;41083;52.932;6.674;2022-12-28T01:41:18;2.55;;;1.40;;
55212;SDS011;41083;52.932;6.674;2022-12-28T01:43:46;1.52;;;1.00;;
55212;SDS011;41083;52.932;6.674;2022-12-28T01:46:35;3.42;;;1.67;;
55212;SDS011;41083;52.932;6.674;2022-12-28T01:49:02;4.53;;;1.50;;
55212;SDS011;41083;52.932;6.674;2022-12-28T01:51:42;2.25;;;1.42;;
55212;SDS011;41083;52.932;6.674;2022-12-28T01:54:18;6.13;;;2.05;;
55212;SDS011;41083;52.932;6.674;2022-12-28T01:56:45;3.42;;;1.67;;
55212;SDS011;41083;52.932;6.674;2022-12-28T01:59:12;6.75;;;1.58;;
55212;SDS011;41083;52.932;6.674;2022-12-28T02:01:38;3.08;;;1.80;;
55212;SDS011;41083;52.932;6.674;2022-12-28T02:04:04;5.35;;;1.70;;
55212;SDS011;41083;52.932;6.674;2022-12-28T02:06:30;2.50;;;1.35;;
55212;SDS011;41083;52.932;6.674;2022-12-28T02:08:57;3.58;;;1.55;;
55212;SDS011;41083;52.932;6.674;2022-12-28T02:11:43;2.67;;;1.50;;
55212;SDS011;41083;52.932;6.674;2022-12-28T02:14:09;2.03;;;1.33;;
55212;SDS011;41083;52.932;6.674;2022-12-28T02:16:37;1.90;;;1.10;;
55212;SDS011;41083;52.932;6.674;2022-12-28T02:19:03;3.85;;;1.85;;
55212;SDS011;41083;52.932;6.674;2022-12-28T02:21:44;6.78;;;2.17;;
55212;SDS011;41083;52.932;6.674;2022-12-28T02:24:29;3.80;;;1.75;;
55212;SDS011;41083;52.932;6.674;2022-12-28T02:27:06;3.10;;;1.38;;
55212;SDS011;41083;52.932;6.674;2022-12-28T02:29:46;3.92;;;1.45;;
55212;SDS011;41083;52.932;6.674;2022-12-28T02:35:17;1.90;;;1.15;;
55212;SDS011;41083;52.932;6.674;2022-12-28T02:38:05;2.72;;;1.50;;
55212;SDS011;41083;52.932;6.674;2022-12-28T02:40:42;1.40;;;1.13;;
55212;SDS011;41083;52.932;6.674;2022-12-28T02:43:11;2.38;;;1.50;;
55212;SDS011;41083;52.932;6.674;2022-12-28T02:45:41;2.50;;;1.42;;
55212;SDS011;41083;52.932;6.674;2022-12-28T02:48:36;4.55;;;1.75;;
55212;SDS011;41083;52.932;6.674;2022-12-28T03:00:34;2.17;;;1.30;;
55212;SDS011;41083;52.932;6.674;2022-12-28T03:03:27;3.17;;;1.30;;
55212;SDS011;41083;52.932;6.674;2022-12-28T03:09:49;3.60;;;1.73;;
55212;SDS011;41083;52.932;6.674;2022-12-28T03:12:42;2.28;;;1.13;;
55212;SDS011;41083;52.932;6.674;2022-12-28T03:15:18;5.65;;;1.52;;
55212;SDS011;41083;52.932;6.674;2022-12-28T03:17:57;2.78;;;1.52;;
55212;SDS011;41083;52.932;6.674;2022-12-28T03:20:48;2.65;;;1.40;;
55212;SDS011;41083;52.932;6.674;2022-12-28T03:23:34;2.13;;;1.13;;
55212;SDS011;41083;52.932;6.674;2022-12-28T03:26:23;1.70;;;1.20;;
55212;SDS011;41083;52.932;6.674;2022-12-28T03:29:08;2.35;;;1.50;;
55212;SDS011;41083;52.932;6.674;2022-12-28T03:31:56;1.83;;;1.25;;
55212;SDS011;41083;52.932;6.674;2022-12-28T03:34:21;2.05;;;1.05;;
55212;SDS011;41083;52.932;6.674;2022-12-28T03:36:58;3.38;;;1.45;;
55212;SDS011;41083;52.932;6.674;2022-12-28T03:39:44;3.90;;;2.05;;
55212;SDS011;41083;52.932;6.674;2022-12-28T03:42:35;3.67;;;1.95;;
55212;SDS011;41083;52.932;6.674;2022-12-28T03:45:40;4.40;;;1.73;;
55212;SDS011;41083;52.932;6.674;2022-12-28T03:48:26;5.50;;;1.73;;
55212;SDS011;41083;52.932;6.674;2022-12-28T03:50:55;1.70;;;0.98;;
55212;SDS011;41083;52.932;6.674;2022-12-28T03:53:26;2.75;;;1.73;;
55212;SDS011;41083;52.932;6.674;2022-12-28T03:56:04;2.75;;;1.80;;
55212;SDS011;41083;52.932;6.674;2022-12-28T03:58:37;1.95;;;1.15;;
55212;SDS011;41083;52.932;6.674;2022-12-28T04:01:03;2.88;;;1.48;;
55212;SDS011;41083;52.932;6.674;2022-12-28T04:03:29;2.58;;;1.30;;
55212;SDS011;41083;52.932;6.674;2022-12-28T04:05:55;2.63;;;1.30;;
55212;SDS011;41083;52.932;6.674;2022-12-28T04:08:20;3.20;;;1.60;;
55212;SDS011;41083;52.932;6.674;2022-12-28T04:10:46;3.45;;;1.60;;
55212;SDS011;41083;52.932;6.674;2022-12-28T04:13:12;1.50;;;0.93;;
55212;SDS011;41083;52.932;6.674;2022-12-28T04:15:37;3.35;;;1.30;;
55212;SDS011;41083;52.932;6.674;2022-12-28T04:18:03;2.17;;;1.10;;
55212;SDS011;41083;52.932;6.674;2022-12-28T04:20:29;2.53;;;1.10;;
55212;SDS011;41083;52.932;6.674;2022-12-28T04:22:54;1.95;;;0.98;;
55212;SDS011;41083;52.932;6.674;2022-12-28T04:25:20;1.75;;;1.00;;
55212;SDS011;41083;52.932;6.674;2022-12-28T04:27:45;2.08;;;1.23;;
55212;SDS011;41083;52.932;6.674;2022-12-28T04:30:11;1.58;;;0.80;;
55212;SDS011;41083;52.932;6.674;2022-12-28T04:32:36;2.03;;;1.27;;
55212;SDS011;41083;52.932;6.674;2022-12-28T04:35:02;1.70;;;1.05;;
55212;SDS011;41083;52.932;6.674;2022-12-28T04:37:28;3.00;;;1.10;;
55212;SDS011;41083;52.932;6.674;2022-12-28T04:39:53;2.53;;;1.00;;
55212;SDS011;41083;52.932;6.674;2022-12-28T04:42:19;1.88;;;1.10;;
55212;SDS011;41083;52.932;6.674;2022-12-28T04:44:45;2.35;;;1.08;;
55212;SDS011;41083;52.932;6.674;2022-12-28T04:47:10;1.90;;;1.10;;
55212;SDS011;41083;52.932;6.674;2022-12-28T04:49:37;2.83;;;0.80;;
55212;SDS011;41083;52.932;6.674;2022-12-28T04:52:03;1.65;;;1.02;;
55212;SDS011;41083;52.932;6.674;2022-12-28T04:54:28;2.13;;;1.45;;
55212;SDS011;41083;52.932;6.674;2022-12-28T04:56:54;1.92;;;1.15;;
55212;SDS011;41083;52.932;6.674;2022-12-28T04:59:19;2.67;;;1.45;;
55212;SDS011;41083;52.932;6.674;2022-12-28T05:01:45;4.22;;;1.42;;
55212;SDS011;41083;52.932;6.674;2022-12-28T05:04:11;1.90;;;1.30;;
55212;SDS011;41083;52.932;6.674;2022-12-28T05:06:36;1.70;;;0.88;;
55212;SDS011;41083;52.932;6.674;2022-12-28T05:09:02;2.08;;;1.02;;
55212;SDS011;41083;52.932;6.674;2022-12-28T05:11:28;1.88;;;1.13;;
55212;SDS011;41083;52.932;6.674;2022-12-28T05:13:54;2.72;;;1.90;;
55212;SDS011;41083;52.932;6.674;2022-12-28T05:16:21;1.88;;;1.05;;
55212;SDS011;41083;52.932;6.674;2022-12-28T05:18:48;2.08;;;1.08;;
55212;SDS011;41083;52.932;6.674;2022-12-28T05:21:15;1.52;;;1.02;;
55212;SDS011;41083;52.932;6.674;2022-12-28T05:23:46;1.30;;;0.90;;
55212;SDS011;41083;52.932;6.674;2022-12-28T05:26:15;2.10;;;1.30;;
55212;SDS011;41083;52.932;6.674;2022-12-28T05:28:43;2.13;;;1.08;;
55212;SDS011;41083;52.932;6.674;2022-12-28T05:31:10;2.92;;;1.08;;
55212;SDS011;41083;52.932;6.674;2022-12-28T05:33:37;2.50;;;1.10;;
55212;SDS011;41083;52.932;6.674;2022-12-28T05:36:03;2.13;;;1.20;;
55212;SDS011;41083;52.932;6.674;2022-12-28T05:38:34;2.00;;;1.40;;
55212;SDS011;41083;52.932;6.674;2022-12-28T05:41:07;2.58;;;0.90;;
55212;SDS011;41083;52.932;6.674;2022-12-28T05:43:38;3.50;;;1.67;;
55212;SDS011;41083;52.932;6.674;2022-12-28T05:46:05;3.17;;;1.35;;
55212;SDS011;41083;52.932;6.674;2022-12-28T05:48:33;2.10;;;1.00;;
55212;SDS011;41083;52.932;6.674;2022-12-28T05:51:06;3.00;;;1.30;;
55212;SDS011;41083;52.932;6.674;2022-12-28T05:53:36;2.40;;;1.20;;
55212;SDS011;41083;52.932;6.674;2022-12-28T05:56:03;2.28;;;1.38;;
55212;SDS011;41083;52.932;6.674;2022-12-28T05:58:30;2.25;;;1.27;;
55212;SDS011;41083;52.932;6.674;2022-12-28T06:03:41;2.15;;;1.25;;
55212;SDS011;41083;52.932;6.674;2022-12-28T06:06:11;2.13;;;1.27;;
55212;SDS011;41083;52.932;6.674;2022-12-28T06:08:38;2.63;;;1.38;;
55212;SDS011;41083;52.932;6.674;2022-12-28T06:11:07;3.38;;;1.50;;
55212;SDS011;41083;52.932;6.674;2022-12-28T06:13:35;3.00;;;1.38;;
55212;SDS011;41083;52.932;6.674;2022-12-28T06:16:05;3.13;;;1.88;;
55212;SDS011;41083;52.932;6.674;2022-12-28T06:18:32;3.30;;;1.75;;
55212;SDS011;41083;52.932;6.674;2022-12-28T06:21:05;2.60;;;1.35;;
55212;SDS011;41083;52.932;6.674;2022-12-28T06:26:00;3.30;;;2.25;;
55212;SDS011;41083;52.932;6.674;2022-12-28T06:28:26;3.92;;;2.05;;
55212;SDS011;41083;52.932;6.674;2022-12-28T06:31:00;2.63;;;1.50;;
55212;SDS011;41083;52.932;6.674;2022-12-28T06:33:46;2.83;;;1.75;;
55212;SDS011;41083;52.932;6.674;2022-12-28T06:36:19;3.08;;;1.83;;
55212;SDS011;41083;52.932;6.674;2022-12-28T06:38:47;2.75;;;1.60;;
55212;SDS011;41083;52.932;6.674;2022-12-28T06:41:14;2.05;;;1.08;;
55212;SDS011;41083;52.932;6.674;2022-12-28T06:43:41;2.65;;;1.40;;
55212;SDS011;41083;52.932;6.674;2022-12-28T06:46:08;3.30;;;1.73;;
55212;SDS011;41083;52.932;6.674;2022-12-28T06:48:34;2.95;;;1.55;;
55212;SDS011;41083;52.932;6.674;2022-12-28T06:51:00;3.03;;;1.63;;
55212;SDS011;41083;52.932;6.674;2022-12-28T06:53:29;2.20;;;1.52;;
55212;SDS011;41083;52.932;6.674;2022-12-28T06:55:57;3.20;;;1.52;;
55212;SDS011;41083;52.932;6.674;2022-12-28T06:58:25;6.68;;;1.40;;
55212;SDS011;41083;52.932;6.674;2022-12-28T07:00:51;2.65;;;1.55;;
55212;SDS011;41083;52.932;6.674;2022-12-28T07:03:17;2.90;;;1.55;;
55212;SDS011;41083;52.932;6.674;2022-12-28T07:05:43;2.08;;;1.13;;
55212;SDS011;41083;52.932;6.674;2022-12-28T07:08:09;5.15;;;2.10;;
55212;SDS011;41083;52.932;6.674;2022-12-28T07:10:34;3.83;;;1.75;;
55212;SDS011;41083;52.932;6.674;2022-12-28T07:13:01;3.90;;;2.08;;
55212;SDS011;41083;52.932;6.674;2022-12-28T07:15:27;4.18;;;2.25;;
55212;SDS011;41083;52.932;6.674;2022-12-28T07:17:53;2.38;;;1.23;;
55212;SDS011;41083;52.932;6.674;2022-12-28T07:20:19;2.78;;;1.50;;
55212;SDS011;41083;52.932;6.674;2022-12-28T07:22:44;3.88;;;2.25;;
55212;SDS011;41083;52.932;6.674;2022-12-28T07:25:10;2.67;;;1.50;;
55212;SDS011;41083;52.932;6.674;2022-12-28T07:27:35;3.30;;;1.92;;
55212;SDS011;41083;52.932;6.674;2022-12-28T07:30:01;3.35;;;2.03;;
55212;SDS011;41083;52.932;6.674;2022-12-28T07:32:27;2.97;;;1.60;;
55212;SDS011;41083;52.932;6.674;2022-12-28T07:34:52;12.02;;;2.55;;
55212;SDS011;41083;52.932;6.674;2022-12-28T07:37:18;4.95;;;2.33;;
55212;SDS011;41083;52.932;6.674;2022-12-28T07:39:44;3.83;;;2.50;;
55212;SDS011;41083;52.932;6.674;2022-12-28T07:42:09;5.03;;;2.55;;
55212;SDS011;41083;52.932;6.674;2022-12-28T07:44:36;3.95;;;2.53;;
55212;SDS011;41083;52.932;6.674;2022-12-28T07:47:02;4.13;;;2.42;;
55212;SDS011;41083;52.932;6.674;2022-12-28T07:49:28;5.00;;;2.50;;
55212;SDS011;41083;52.932;6.674;2022-12-28T07:51:53;3.58;;;1.73;;
55212;SDS011;41083;52.932;6.674;2022-12-28T07:54:19;5.30;;;2.58;;
55212;SDS011;41083;52.932;6.674;2022-12-28T07:56:44;4.03;;;1.88;;
55212;SDS011;41083;52.932;6.674;2022-12-28T07:59:10;3.28;;;1.77;;
55212;SDS011;41083;52.932;6.674;2022-12-28T08:01:38;4.20;;;2.35;;
55212;SDS011;41083;52.932;6.674;2022-12-28T08:04:05;4.60;;;2.80;;
55212;SDS011;41083;52.932;6.674;2022-12-28T08:06:34;3.80;;;1.75;;
55212;SDS011;41083;52.932;6.674;2022-12-28T08:09:01;3.80;;;1.95;;
55212;SDS011;41083;52.932;6.674;2022-12-28T08:11:29;4.47;;;2.10;;
55212;SDS011;41083;52.932;6.674;2022-12-28T08:13:57;3.08;;;2.53;;
55212;SDS011;41083;52.932;6.674;2022-12-28T08:16:24;3.45;;;1.95;;
55212;SDS011;41083;52.932;6.674;2022-12-28T08:18:51;2.72;;;2.05;;
55212;SDS011;41083;52.932;6.674;2022-12-28T08:21:25;3.63;;;2.20;;
55212;SDS011;41083;52.932;6.674;2022-12-28T08:23:54;4.05;;;2.30;;
55212;SDS011;41083;52.932;6.674;2022-12-28T08:26:21;3.03;;;2.10;;
55212;SDS011;41083;52.932;6.674;2022-12-28T08:28:50;4.47;;;2.53;;
55212;SDS011;41083;52.932;6.674;2022-12-28T08:31:19;3.17;;;1.73;;
55212;SDS011;41083;52.932;6.674;2022-12-28T08:33:46;5.57;;;2.17;;
55212;SDS011;41083;52.932;6.674;2022-12-28T08:36:12;2.88;;;1.70;;
55212;SDS011;41083;52.932;6.674;2022-12-28T08:38:39;3.58;;;2.10;;
55212;SDS011;41083;52.932;6.674;2022-12-28T08:41:06;3.95;;;2.17;;
55212;SDS011;41083;52.932;6.674;2022-12-28T08:43:34;3.70;;;2.15;;
55212;SDS011;41083;52.932;6.674;2022-12-28T08:46:01;2.80;;;1.73;;
55212;SDS011;41083;52.932;6.674;2022-12-28T08:48:51;2.45;;;1.50;;
55212;SDS011;41083;52.932;6.674;2022-12-28T08:51:19;3.45;;;1.92;;
55212;SDS011;41083;52.932;6.674;2022-12-28T08:53:49;2.28;;;1.52;;
55212;SDS011;41083;52.932;6.674;2022-12-28T08:56:16;2.85;;;1.50;;
55212;SDS011;41083;52.932;6.674;2022-12-28T08:58:44;3.30;;;1.73;;
55212;SDS011;41083;52.932;6.674;2022-12-28T09:01:14;3.42;;;1.55;;
55212;SDS011;41083;52.932;6.674;2022-12-28T09:03:43;4.97;;;1.90;;
55212;SDS011;41083;52.932;6.674;2022-12-28T09:06:11;3.38;;;1.75;;
55212;SDS011;41083;52.932;6.674;2022-12-28T09:08:42;3.58;;;1.90;;
55212;SDS011;41083;52.932;6.674;2022-12-28T09:11:09;3.50;;;1.83;;
55212;SDS011;41083;52.932;6.674;2022-12-28T09:13:37;3.08;;;1.65;;
55212;SDS011;41083;52.932;6.674;2022-12-28T09:18:33;2.75;;;1.70;;
55212;SDS011;41083;52.932;6.674;2022-12-28T09:21:06;3.10;;;1.50;;
55212;SDS011;41083;52.932;6.674;2022-12-28T09:23:41;3.28;;;1.90;;
55212;SDS011;41083;52.932;6.674;2022-12-28T09:26:11;5.93;;;2.03;;
55212;SDS011;41083;52.932;6.674;2022-12-28T09:28:38;2.55;;;1.55;;
55212;SDS011;41083;52.932;6.674;2022-12-28T09:31:08;2.42;;;1.40;;
55212;SDS011;41083;52.932;6.674;2022-12-28T09:33:34;4.70;;;1.63;;
55212;SDS011;41083;52.932;6.674;2022-12-28T09:36:18;2.85;;;1.63;;
55212;SDS011;41083;52.932;6.674;2022-12-28T09:38:45;2.65;;;1.38;;
55212;SDS011;41083;52.932;6.674;2022-12-28T09:41:14;2.72;;;1.63;;
55212;SDS011;41083;52.932;6.674;2022-12-28T09:44:17;4.75;;;1.52;;
55212;SDS011;41083;52.932;6.674;2022-12-28T09:46:59;2.80;;;1.75;;
55212;SDS011;41083;52.932;6.674;2022-12-28T09:55:24;3.65;;;2.13;;
55212;SDS011;41083;52.932;6.674;2022-12-28T09:57:52;3.58;;;2.03;;
55212;SDS011;41083;52.932;6.674;2022-12-28T10:00:20;3.13;;;1.77;;
55212;SDS011;41083;52.932;6.674;2022-12-28T10:03:02;2.70;;;1.50;;
55212;SDS011;41083;52.932;6.674;2022-12-28T10:05:35;3.25;;;1.90;;
55212;SDS011;41083;52.932;6.674;2022-12-28T10:08:00;3.28;;;1.65;;
55212;SDS011;41083;52.932;6.674;2022-12-28T10:10:27;2.60;;;1.52;;
55212;SDS011;41083;52.932;6.674;2022-12-28T10:12:53;4.88;;;1.55;;
55212;SDS011;41083;52.932;6.674;2022-12-28T10:15:20;3.55;;;1.80;;
55212;SDS011;41083;52.932;6.674;2022-12-28T10:17:48;2.53;;;1.63;;
55212;SDS011;41083;52.932;6.674;2022-12-28T10:20:18;2.67;;;1.42;;
55212;SDS011;41083;52.932;6.674;2022-12-28T10:22:47;2.50;;;1.38;;
55212;SDS011;41083;52.932;6.674;2022-12-28T10:25:21;1.98;;;1.10;;
55212;SDS011;41083;52.932;6.674;2022-12-28T10:27:48;2.03;;;1.35;;
55212;SDS011;41083;52.932;6.674;2022-12-28T10:35:27;2.75;;;1.50;;
55212;SDS011;41083;52.932;6.674;2022-12-28T10:38:01;1.83;;;0.90;;
55212;SDS011;41083;52.932;6.674;2022-12-28T10:40:37;2.03;;;1.20;;
55212;SDS011;41083;52.932;6.674;2022-12-28T10:43:03;3.03;;;1.38;;
55212;SDS011;41083;52.932;6.674;2022-12-28T10:45:34;2.67;;;1.25;;
55212;SDS011;41083;52.932;6.674;2022-12-28T10:48:27;1.80;;;1.00;;
55212;SDS011;41083;52.932;6.674;2022-12-28T10:53:42;3.30;;;2.03;;
55212;SDS011;41083;52.932;6.674;2022-12-28T10:58:39;3.95;;;1.85;;
55212;SDS011;41083;52.932;6.674;2022-12-28T11:03:39;3.58;;;1.92;;
55212;SDS011;41083;52.932;6.674;2022-12-28T11:06:18;3.30;;;1.75;;
55212;SDS011;41083;52.932;6.674;2022-12-28T11:08:58;2.58;;;1.73;;
55212;SDS011;41083;52.932;6.674;2022-12-28T11:11:24;2.20;;;1.27;;
55212;SDS011;41083;52.932;6.674;2022-12-28T11:14:12;1.40;;;0.77;;
55212;SDS011;41083;52.932;6.674;2022-12-28T11:17:18;2.47;;;1.35;;
55212;SDS011;41083;52.932;6.674;2022-12-28T11:19:52;1.80;;;0.80;;
55212;SDS011;41083;52.932;6.674;2022-12-28T11:22:22;1.70;;;0.90;;
55212;SDS011;41083;52.932;6.674;2022-12-28T11:24:50;2.17;;;1.30;;
55212;SDS011;41083;52.932;6.674;2022-12-28T11:27:17;1.83;;;0.90;;
55212;SDS011;41083;52.932;6.674;2022-12-28T11:29:46;1.77;;;1.10;;
55212;SDS011;41083;52.932;6.674;2022-12-28T11:32:36;2.83;;;0.85;;
55212;SDS011;41083;52.932;6.674;2022-12-28T11:35:03;1.95;;;0.85;;
55212;SDS011;41083;52.932;6.674;2022-12-28T11:37:30;2.03;;;1.38;;
55212;SDS011;41083;52.932;6.674;2022-12-28T11:39:55;1.85;;;0.98;;
55212;SDS011;41083;52.932;6.674;2022-12-28T11:45:04;1.80;;;0.98;;
55212;SDS011;41083;52.932;6.674;2022-12-28T11:52:58;2.53;;;1.17;;
55212;SDS011;41083;52.932;6.674;2022-12-28T12:01:03;2.65;;;1.10;;
55212;SDS011;41083;52.932;6.674;2022-12-28T12:11:49;1.55;;;0.88;;
55212;SDS011;41083;52.932;6.674;2022-12-28T12:14:17;2.40;;;1.08;;
55212;SDS011;41083;52.932;6.674;2022-12-28T12:16:52;1.67;;;1.08;;
55212;SDS011;41083;52.932;6.674;2022-12-28T12:19:28;2.28;;;0.75;;
55212;SDS011;41083;52.932;6.674;2022-12-28T12:22:10;2.25;;;1.17;;
55212;SDS011;41083;52.932;6.674;2022-12-28T12:24:45;1.38;;;0.85;;
55212;SDS011;41083;52.932;6.674;2022-12-28T12:27:38;2.25;;;0.98;;
55212;SDS011;41083;52.932;6.674;2022-12-28T12:30:17;1.52;;;1.05;;
55212;SDS011;41083;52.932;6.674;2022-12-28T12:32:57;2.63;;;1.15;;
55212;SDS011;41083;52.932;6.674;2022-12-28T12:35:28;3.50;;;2.28;;
55212;SDS011;41083;52.932;6.674;2022-12-28T12:38:06;8.05;;;4.10;;
55212;SDS011;41083;52.932;6.674;2022-12-28T12:51:35;2.65;;;1.80;;
55212;SDS011;41083;52.932;6.674;2022-12-28T12:57:22;5.43;;;3.10;;
55212;SDS011;41083;52.932;6.674;2022-12-28T13:00:13;1.95;;;0.90;;
55212;SDS011;41083;52.932;6.674;2022-12-28T13:02:50;2.47;;;1.23;;
55212;SDS011;41083;52.932;6.674;2022-12-28T13:05:35;1.90;;;1.27;;
55212;SDS011;41083;52.932;6.674;2022-12-28T13:08:03;1.50;;;0.68;;
55212;SDS011;41083;52.932;6.674;2022-12-28T13:10:33;2.20;;;1.67;;
55212;SDS011;41083;52.932;6.674;2022-12-28T13:13:01;2.13;;;1.05;;
55212;SDS011;41083;52.932;6.674;2022-12-28T13:15:28;1.42;;;0.82;;
55212;SDS011;41083;52.932;6.674;2022-12-28T13:17:58;2.25;;;1.15;;
55212;SDS011;41083;52.932;6.674;2022-12-28T13:20:29;1.15;;;0.75;;
55212;SDS011;41083;52.932;6.674;2022-12-28T13:22:55;1.35;;;0.70;;
55212;SDS011;41083;52.932;6.674;2022-12-28T13:25:24;1.85;;;0.90;;
55212;SDS011;41083;52.932;6.674;2022-12-28T13:27:51;0.43;;;0.35;;
55212;SDS011;41083;52.932;6.674;2022-12-28T13:30:18;1.77;;;1.25;;
55212;SDS011;41083;52.932;6.674;2022-12-28T13:32:49;0.73;;;0.50;;
55212;SDS011;41083;52.932;6.674;2022-12-28T13:35:17;0.82;;;0.60;;
55212;SDS011;41083;52.932;6.674;2022-12-28T13:38:00;1.05;;;0.75;;
55212;SDS011;41083;52.932;6.674;2022-12-28T13:40:32;1.13;;;0.77;;
55212;SDS011;41083;52.932;6.674;2022-12-28T13:43:03;1.65;;;1.05;;
55212;SDS011;41083;52.932;6.674;2022-12-28T13:45:51;1.38;;;0.70;;
55212;SDS011;41083;52.932;6.674;2022-12-28T13:48:20;1.42;;;0.93;;
55212;SDS011;41083;52.932;6.674;2022-12-28T13:50:47;2.45;;;1.10;;
55212;SDS011;41083;52.932;6.674;2022-12-28T13:53:18;1.13;;;0.68;;
55212;SDS011;41083;52.932;6.674;2022-12-28T13:55:57;1.00;;;0.40;;
55212;SDS011;41083;52.932;6.674;2022-12-28T13:58:30;1.17;;;0.50;;
55212;SDS011;41083;52.932;6.674;2022-12-28T14:00:59;0.73;;;0.40;;
55212;SDS011;41083;52.932;6.674;2022-12-28T14:03:30;0.98;;;0.52;;
55212;SDS011;41083;52.932;6.674;2022-12-28T14:05:57;4.45;;;0.68;;
55212;SDS011;41083;52.932;6.674;2022-12-28T14:08:25;2.42;;;0.85;;
55212;SDS011;41083;52.932;6.674;2022-12-28T14:10:57;1.15;;;0.65;;
55212;SDS011;41083;52.932;6.674;2022-12-28T14:13:23;1.02;;;0.73;;
55212;SDS011;41083;52.932;6.674;2022-12-28T14:15:50;2.45;;;1.20;;
55212;SDS011;41083;52.932;6.674;2022-12-28T14:18:16;1.50;;;0.90;;
55212;SDS011;41083;52.932;6.674;2022-12-28T14:20:50;2.15;;;1.20;;
55212;SDS011;41083;52.932;6.674;2022-12-28T14:23:17;2.05;;;0.80;;
55212;SDS011;41083;52.932;6.674;2022-12-28T14:25:51;1.83;;;1.02;;
55212;SDS011;41083;52.932;6.674;2022-12-28T14:28:22;1.40;;;0.73;;
55212;SDS011;41083;52.932;6.674;2022-12-28T14:31:08;1.10;;;0.75;;
55212;SDS011;41083;52.932;6.674;2022-12-28T14:33:37;1.30;;;0.82;;
55212;SDS011;41083;52.932;6.674;2022-12-28T14:36:15;1.85;;;1.27;;
55212;SDS011;41083;52.932;6.674;2022-12-28T14:38:44;1.58;;;1.00;;
55212;SDS011;41083;52.932;6.674;2022-12-28T14:41:19;1.73;;;1.17;;
55212;SDS011;41083;52.932;6.674;2022-12-28T14:43:52;3.17;;;1.10;;
55212;SDS011;41083;52.932;6.674;2022-12-28T14:46:38;2.63;;;0.73;;
55212;SDS011;41083;52.932;6.674;2022-12-28T14:51:51;0.82;;;0.70;;
55212;SDS011;41083;52.932;6.674;2022-12-28T14:54:21;1.33;;;1.00;;
55212;SDS011;41083;52.932;6.674;2022-12-28T14:56:52;3.90;;;1.10;;
55212;SDS011;41083;52.932;6.674;2022-12-28T14:59:25;1.88;;;0.98;;
55212;SDS011;41083;52.932;6.674;2022-12-28T15:01:57;1.75;;;1.00;;
55212;SDS011;41083;52.932;6.674;2022-12-28T15:07:05;1.95;;;1.25;;
55212;SDS011;41083;52.932;6.674;2022-12-28T15:09:32;2.65;;;1.20;;
55212;SDS011;41083;52.932;6.674;2022-12-28T15:12:18;2.42;;;1.20;;
55212;SDS011;41083;52.932;6.674;2022-12-28T15:14:46;3.08;;;1.67;;
55212;SDS011;41083;52.932;6.674;2022-12-28T15:17:12;2.05;;;1.35;;
55212;SDS011;41083;52.932;6.674;2022-12-28T15:19:40;2.25;;;1.13;;
55212;SDS011;41083;52.932;6.674;2022-12-28T15:22:06;1.90;;;1.13;;
55212;SDS011;41083;52.932;6.674;2022-12-28T15:24:32;1.63;;;1.08;;
55212;SDS011;41083;52.932;6.674;2022-12-28T15:26:58;3.60;;;1.65;;
55212;SDS011;41083;52.932;6.674;2022-12-28T15:29:24;3.42;;;1.60;;
55212;SDS011;41083;52.932;6.674;2022-12-28T15:31:50;2.08;;;1.30;;
55212;SDS011;41083;52.932;6.674;2022-12-28T15:34:15;2.42;;;1.25;;
55212;SDS011;41083;52.932;6.674;2022-12-28T15:36:41;2.85;;;1.30;;
55212;SDS011;41083;52.932;6.674;2022-12-28T15:39:13;2.05;;;1.10;;
55212;SDS011;41083;52.932;6.674;2022-12-28T15:41:39;1.63;;;1.00;;
55212;SDS011;41083;52.932;6.674;2022-12-28T15:44:12;3.42;;;1.30;;
55212;SDS011;41083;52.932;6.674;2022-12-28T15:46:38;5.88;;;1.63;;
55212;SDS011;41083;52.932;6.674;2022-12-28T15:49:04;3.50;;;1.85;;
55212;SDS011;41083;52.932;6.674;2022-12-28T15:51:30;3.35;;;1.15;;
55212;SDS011;41083;52.932;6.674;2022-12-28T15:53:56;2.13;;;1.27;;
55212;SDS011;41083;52.932;6.674;2022-12-28T15:56:26;1.98;;;1.27;;
55212;SDS011;41083;52.932;6.674;2022-12-28T15:58:54;2.03;;;1.23;;
55212;SDS011;41083;52.932;6.674;2022-12-28T16:01:21;8.88;;;1.02;;
55212;SDS011;41083;52.932;6.674;2022-12-28T16:03:48;1.65;;;1.17;;
55212;SDS011;41083;52.932;6.674;2022-12-28T16:06:15;2.75;;;1.20;;
55212;SDS011;41083;52.932;6.674;2022-12-28T16:08:42;2.40;;;0.90;;
55212;SDS011;41083;52.932;6.674;2022-12-28T16:11:12;2.28;;;1.30;;
55212;SDS011;41083;52.932;6.674;2022-12-28T16:13:39;2.95;;;1.60;;
55212;SDS011;41083;52.932;6.674;2022-12-28T16:16:05;2.25;;;1.40;;
55212;SDS011;41083;52.932;6.674;2022-12-28T16:18:32;4.60;;;1.40;;
55212;SDS011;41083;52.932;6.674;2022-12-28T16:20:59;2.65;;;1.10;;
55212;SDS011;41083;52.932;6.674;2022-12-28T16:23:32;1.70;;;1.20;;
55212;SDS011;41083;52.932;6.674;2022-12-28T16:26:02;1.55;;;1.10;;
55212;SDS011;41083;52.932;6.674;2022-12-28T16:28:28;1.63;;;1.20;;
55212;SDS011;41083;52.932;6.674;2022-12-28T16:30:54;2.67;;;1.17;;
55212;SDS011;41083;52.932;6.674;2022-12-28T16:33:20;2.38;;;1.25;;